IGO2513 VECC-VEKU
Flight info
| Callsign | IGO2513 |
|---|---|
| Flight time | 0h 50m |
| Altitude | 35000 |
| Route | CEA B593 AAT W55 KKU |
| Aircraft | A20N/M-SDE2E3FGHIRWXY/LB1 |
Departure
| Time | 2026-05-04 07:12 |
|---|---|
| Airport | Netaji Subhash Chandra Bose International Airport (VECC) |
Arrival
| Time | 2026-05-04 08:02 |
|---|---|
| Airport | Silchar Airport (VEKU) |
| Time | Latitude | Longitude | Altitude | Speed | Heading |
|---|---|---|---|---|---|
| 2026-05-04 06:51 | 22.64305 | 88.44063 | 26 ft | 0 kts | 273° |
| 2026-05-04 06:57 | 22.64304 | 88.44089 | 25 ft | 2 kts | 273° |
| 2026-05-04 06:58 | 22.64303 | 88.44105 | 24 ft | 2 kts | 273° |
| 2026-05-04 06:58 | 22.64302 | 88.44121 | 23 ft | 2 kts | 273° |
| 2026-05-04 06:58 | 22.64296 | 88.44135 | 23 ft | 2 kts | 318° |
| 2026-05-04 06:58 | 22.64282 | 88.44143 | 23 ft | 2 kts | 355° |
| 2026-05-04 06:59 | 22.64276 | 88.44143 | 23 ft | 1 kts | 12° |
| 2026-05-04 06:59 | 22.64271 | 88.44142 | 23 ft | 0 kts | 6° |
| 2026-05-04 07:01 | 22.64359 | 88.44152 | 23 ft | 6 kts | 6° |
| 2026-05-04 07:01 | 22.64409 | 88.44158 | 24 ft | 7 kts | 6° |
| 2026-05-04 07:02 | 22.64464 | 88.44164 | 25 ft | 8 kts | 5° |
| 2026-05-04 07:02 | 22.64525 | 88.44171 | 25 ft | 9 kts | 7° |
| 2026-05-04 07:02 | 22.64593 | 88.44180 | 26 ft | 10 kts | 6° |
| 2026-05-04 07:02 | 22.64667 | 88.44188 | 27 ft | 11 kts | 6° |
| 2026-05-04 07:03 | 22.64747 | 88.44198 | 27 ft | 11 kts | 6° |
| 2026-05-04 07:03 | 22.64831 | 88.44206 | 29 ft | 11 kts | 2° |
| 2026-05-04 07:03 | 22.64911 | 88.44214 | 30 ft | 10 kts | 9° |
| 2026-05-04 07:03 | 22.64975 | 88.44224 | 32 ft | 8 kts | 6° |
| 2026-05-04 07:04 | 22.65026 | 88.44230 | 33 ft | 6 kts | 7° |
| 2026-05-04 07:04 | 22.65057 | 88.44255 | 34 ft | 5 kts | 62° |
| 2026-05-04 07:04 | 22.65072 | 88.44292 | 35 ft | 5 kts | 67° |
| 2026-05-04 07:04 | 22.65090 | 88.44338 | 34 ft | 7 kts | 67° |
| 2026-05-04 07:05 | 22.65116 | 88.44404 | 32 ft | 10 kts | 53° |
| 2026-05-04 07:05 | 22.65196 | 88.44430 | 31 ft | 13 kts | 5° |
| 2026-05-04 07:05 | 22.65293 | 88.44440 | 31 ft | 14 kts | 5° |
| 2026-05-04 07:05 | 22.65395 | 88.44452 | 30 ft | 15 kts | 6° |
| 2026-05-04 07:06 | 22.65625 | 88.44479 | 28 ft | 18 kts | 6° |
| 2026-05-04 07:06 | 22.65755 | 88.44493 | 26 ft | 19 kts | 5° |
| 2026-05-04 07:06 | 22.65870 | 88.44523 | 24 ft | 17 kts | 28° |
| 2026-05-04 07:07 | 22.65977 | 88.44596 | 22 ft | 18 kts | 33° |
| 2026-05-04 07:08 | 22.66589 | 88.44788 | 25 ft | 0 kts | 53° |
| 2026-05-04 07:09 | 22.66592 | 88.44793 | 26 ft | 1 kts | 53° |
| 2026-05-04 07:09 | 22.66603 | 88.44807 | 26 ft | 3 kts | 53° |
| 2026-05-04 07:10 | 22.66619 | 88.44833 | 26 ft | 4 kts | 53° |
| 2026-05-04 07:10 | 22.66642 | 88.44866 | 27 ft | 6 kts | 58° |
| 2026-05-04 07:12 | 22.62630 | 88.44408 | 1082 ft | 174 kts | 181° |
| 2026-05-04 07:12 | 22.61471 | 88.44802 | 1553 ft | 184 kts | 136° |
| 2026-05-04 07:12 | 22.60984 | 88.46040 | 2148 ft | 190 kts | 89° |
| 2026-05-04 07:12 | 22.61439 | 88.47381 | 2776 ft | 196 kts | 63° |
| 2026-05-04 07:13 | 22.62049 | 88.48747 | 3233 ft | 210 kts | 69° |
| 2026-05-04 07:13 | 22.62606 | 88.50293 | 3588 ft | 233 kts | 70° |
| 2026-05-04 07:13 | 22.63214 | 88.52012 | 4083 ft | 252 kts | 70° |
| 2026-05-04 07:14 | 22.66078 | 88.59724 | 6916 ft | 290 kts | 68° |
| 2026-05-04 07:14 | 22.66848 | 88.61765 | 7754 ft | 293 kts | 67° |
| 2026-05-04 07:15 | 22.67619 | 88.63803 | 8565 ft | 297 kts | 66° |
| 2026-05-04 07:15 | 22.68408 | 88.65884 | 9397 ft | 300 kts | 66° |
| 2026-05-04 07:15 | 22.69198 | 88.67972 | 10172 ft | 304 kts | 66° |
| 2026-05-04 07:15 | 22.70023 | 88.70145 | 10685 ft | 319 kts | 66° |
| 2026-05-04 07:16 | 22.70881 | 88.72405 | 11141 ft | 334 kts | 66° |
| 2026-05-04 07:16 | 22.71775 | 88.74767 | 11849 ft | 340 kts | 66° |
| 2026-05-04 07:16 | 22.72662 | 88.77117 | 12620 ft | 344 kts | 66° |
| 2026-05-04 07:16 | 22.73570 | 88.79524 | 13368 ft | 347 kts | 66° |
| 2026-05-04 07:17 | 22.74491 | 88.81958 | 14072 ft | 352 kts | 66° |
| 2026-05-04 07:17 | 22.75430 | 88.84441 | 14754 ft | 357 kts | 66° |
| 2026-05-04 07:17 | 22.76363 | 88.86911 | 15423 ft | 362 kts | 67° |
| 2026-05-04 07:17 | 22.77318 | 88.89449 | 16064 ft | 367 kts | 67° |
| 2026-05-04 07:18 | 22.78291 | 88.92037 | 16687 ft | 372 kts | 68° |
| 2026-05-04 07:18 | 22.79223 | 88.94645 | 17296 ft | 377 kts | 71° |
| 2026-05-04 07:18 | 22.80048 | 88.97357 | 17911 ft | 381 kts | 72° |
| 2026-05-04 07:18 | 22.80851 | 89.00104 | 18490 ft | 385 kts | 72° |
| 2026-05-04 07:19 | 22.81658 | 89.02881 | 19050 ft | 389 kts | 72° |
| 2026-05-04 07:19 | 22.82477 | 89.05696 | 19613 ft | 393 kts | 72° |
| 2026-05-04 07:19 | 22.83308 | 89.08543 | 20160 ft | 396 kts | 72° |
| 2026-05-04 07:19 | 22.84134 | 89.11374 | 20674 ft | 400 kts | 72° |
| 2026-05-04 07:20 | 22.84978 | 89.14261 | 21183 ft | 403 kts | 72° |
| 2026-05-04 07:20 | 22.85830 | 89.17181 | 21668 ft | 407 kts | 71° |
| 2026-05-04 07:20 | 22.86678 | 89.20087 | 22124 ft | 410 kts | 71° |
| 2026-05-04 07:20 | 22.87552 | 89.23078 | 22621 ft | 413 kts | 71° |
| 2026-05-04 07:22 | 22.93793 | 89.44521 | 25671 ft | 439 kts | 72° |
| 2026-05-04 07:22 | 22.94699 | 89.47649 | 26060 ft | 443 kts | 72° |
| 2026-05-04 07:23 | 22.95628 | 89.50852 | 26444 ft | 447 kts | 72° |
| 2026-05-04 07:23 | 22.96563 | 89.54081 | 26830 ft | 450 kts | 72° |
| 2026-05-04 07:23 | 22.97500 | 89.57320 | 27198 ft | 454 kts | 72° |
| 2026-05-04 07:23 | 22.98445 | 89.60593 | 27575 ft | 457 kts | 72° |
| 2026-05-04 07:24 | 22.99399 | 89.63899 | 27944 ft | 461 kts | 72° |
| 2026-05-04 07:24 | 23.00364 | 89.67245 | 28305 ft | 464 kts | 73° |
| 2026-05-04 07:24 | 23.01330 | 89.70594 | 28652 ft | 467 kts | 73° |
| 2026-05-04 07:24 | 23.02298 | 89.73960 | 28995 ft | 469 kts | 73° |
| 2026-05-04 07:25 | 23.03268 | 89.77338 | 29354 ft | 472 kts | 73° |
| 2026-05-04 07:26 | 23.10042 | 90.01007 | 32461 ft | 466 kts | 73° |
| 2026-05-04 07:27 | 23.10986 | 90.04376 | 32908 ft | 465 kts | 73° |
| 2026-05-04 07:27 | 23.11921 | 90.07728 | 33335 ft | 464 kts | 73° |
| 2026-05-04 07:27 | 23.12853 | 90.11070 | 33705 ft | 465 kts | 73° |
| 2026-05-04 07:27 | 23.13792 | 90.14437 | 34049 ft | 466 kts | 72° |
| 2026-05-04 07:28 | 23.14732 | 90.17806 | 34382 ft | 467 kts | 72° |
| 2026-05-04 07:28 | 23.15677 | 90.21198 | 34709 ft | 468 kts | 72° |
| 2026-05-04 07:28 | 23.16622 | 90.24588 | 34849 ft | 470 kts | 72° |
| 2026-05-04 07:28 | 23.17558 | 90.27946 | 34853 ft | 470 kts | 72° |
| 2026-05-04 07:29 | 23.19448 | 90.34742 | 34856 ft | 470 kts | 72° |
| 2026-05-04 07:29 | 23.21328 | 90.41518 | 34859 ft | 469 kts | 72° |
| 2026-05-04 07:30 | 23.23234 | 90.48297 | 34860 ft | 469 kts | 71° |
| 2026-05-04 07:30 | 23.25183 | 90.55053 | 34864 ft | 469 kts | 71° |
| 2026-05-04 07:31 | 23.27124 | 90.61807 | 34865 ft | 469 kts | 71° |
| 2026-05-04 07:33 | 23.34850 | 90.88902 | 34876 ft | 469 kts | 72° |
| 2026-05-04 07:33 | 23.36764 | 90.95677 | 34875 ft | 468 kts | 72° |
| 2026-05-04 07:34 | 23.38667 | 91.02425 | 34879 ft | 468 kts | 72° |
| 2026-05-04 07:34 | 23.40757 | 91.09130 | 34875 ft | 467 kts | 62° |
| 2026-05-04 07:35 | 23.42393 | 91.12167 | 34878 ft | 465 kts | 51° |
| 2026-05-04 07:35 | 23.44479 | 91.14813 | 34880 ft | 464 kts | 40° |
| 2026-05-04 07:35 | 23.49774 | 91.18737 | 34884 ft | 457 kts | 19° |
| 2026-05-04 07:36 | 23.55849 | 91.20452 | 34888 ft | 447 kts | 1° |
| 2026-05-04 07:38 | 23.77532 | 91.22626 | 33258 ft | 455 kts | 1° |
| 2026-05-04 07:38 | 23.80721 | 91.23196 | 32035 ft | 471 kts | 12° |
| 2026-05-04 07:38 | 23.83808 | 91.24573 | 31184 ft | 479 kts | 26° |
| 2026-05-04 07:38 | 23.86557 | 91.26675 | 30425 ft | 485 kts | 39° |
| 2026-05-04 07:39 | 23.88803 | 91.29399 | 29813 ft | 485 kts | 53° |
| 2026-05-04 07:39 | 23.90426 | 91.32568 | 29277 ft | 482 kts | 67° |
| 2026-05-04 07:39 | 23.91382 | 91.36076 | 28780 ft | 477 kts | 78° |
| 2026-05-04 07:39 | 23.91997 | 91.39582 | 28335 ft | 471 kts | 80° |
| 2026-05-04 07:40 | 23.92566 | 91.43104 | 27877 ft | 466 kts | 80° |
| 2026-05-04 07:40 | 23.93129 | 91.46545 | 27420 ft | 462 kts | 79° |
| 2026-05-04 07:40 | 23.93711 | 91.49993 | 26954 ft | 458 kts | 79° |
| 2026-05-04 07:40 | 23.94298 | 91.53394 | 26489 ft | 454 kts | 79° |
| 2026-05-04 07:41 | 23.94888 | 91.56767 | 26025 ft | 450 kts | 79° |
| 2026-05-04 07:41 | 23.95469 | 91.60068 | 25561 ft | 446 kts | 79° |
| 2026-05-04 07:41 | 23.96054 | 91.63394 | 25096 ft | 442 kts | 79° |
| 2026-05-04 07:41 | 23.96636 | 91.66701 | 24635 ft | 439 kts | 79° |
| 2026-05-04 07:42 | 23.97214 | 91.69988 | 24178 ft | 435 kts | 79° |
| 2026-05-04 07:42 | 23.97783 | 91.73229 | 23727 ft | 431 kts | 79° |
| 2026-05-04 07:42 | 23.98342 | 91.76414 | 23283 ft | 427 kts | 79° |
| 2026-05-04 07:42 | 23.98895 | 91.79575 | 22838 ft | 424 kts | 79° |
| 2026-05-04 07:43 | 23.99446 | 91.82715 | 22401 ft | 420 kts | 78° |
| 2026-05-04 07:43 | 24.00292 | 91.85728 | 21963 ft | 416 kts | 65° |
| 2026-05-04 07:43 | 24.01755 | 91.88451 | 21480 ft | 413 kts | 51° |
| 2026-05-04 07:43 | 24.03608 | 91.90815 | 21015 ft | 409 kts | 46° |
| 2026-05-04 07:44 | 24.05517 | 91.93089 | 20572 ft | 406 kts | 46° |
| 2026-05-04 07:44 | 24.07435 | 91.95359 | 20128 ft | 403 kts | 46° |
| 2026-05-04 07:44 | 24.09326 | 91.97614 | 19678 ft | 400 kts | 46° |
| 2026-05-04 07:44 | 24.11215 | 91.99886 | 19209 ft | 397 kts | 46° |
| 2026-05-04 07:45 | 24.13050 | 92.02103 | 18754 ft | 394 kts | 46° |
| 2026-05-04 07:45 | 24.14875 | 92.04316 | 18300 ft | 391 kts | 46° |
| 2026-05-04 07:45 | 24.16708 | 92.06542 | 17857 ft | 388 kts | 46° |
| 2026-05-04 07:45 | 24.18484 | 92.08704 | 17412 ft | 385 kts | 46° |
| 2026-05-04 07:46 | 24.20287 | 92.10901 | 16950 ft | 382 kts | 46° |
| 2026-05-04 07:46 | 24.22047 | 92.13046 | 16509 ft | 379 kts | 46° |
| 2026-05-04 07:46 | 24.23794 | 92.15177 | 16062 ft | 376 kts | 46° |
| 2026-05-04 07:46 | 24.25524 | 92.17287 | 15609 ft | 373 kts | 46° |
| 2026-05-04 07:47 | 24.27254 | 92.19399 | 15161 ft | 371 kts | 46° |
| 2026-05-04 07:47 | 24.28973 | 92.21497 | 14715 ft | 368 kts | 46° |
| 2026-05-04 07:47 | 24.30686 | 92.23591 | 14269 ft | 365 kts | 46° |
| 2026-05-04 07:49 | 24.42262 | 92.37756 | 11184 ft | 348 kts | 46° |
| 2026-05-04 07:49 | 24.43847 | 92.39699 | 10761 ft | 345 kts | 46° |
| 2026-05-04 07:49 | 24.45451 | 92.41667 | 10383 ft | 341 kts | 46° |
| 2026-05-04 07:50 | 24.47011 | 92.43584 | 10132 ft | 332 kts | 46° |
| 2026-05-04 07:50 | 24.48526 | 92.45445 | 10027 ft | 318 kts | 46° |
| 2026-05-04 07:50 | 24.49976 | 92.47229 | 9831 ft | 309 kts | 46° |
| 2026-05-04 07:50 | 24.51392 | 92.48968 | 9455 ft | 308 kts | 46° |
| 2026-05-04 07:51 | 24.52836 | 92.50740 | 9077 ft | 306 kts | 46° |
| 2026-05-04 07:51 | 24.54245 | 92.52470 | 8724 ft | 303 kts | 46° |
| 2026-05-04 07:51 | 24.55645 | 92.54192 | 8371 ft | 301 kts | 47° |
| 2026-05-04 07:51 | 24.57037 | 92.55904 | 8016 ft | 298 kts | 47° |
| 2026-05-04 07:52 | 24.58414 | 92.57598 | 7675 ft | 296 kts | 47° |
| 2026-05-04 07:52 | 24.59798 | 92.59301 | 7323 ft | 294 kts | 47° |
| 2026-05-04 07:52 | 24.61154 | 92.60971 | 6978 ft | 291 kts | 47° |
| 2026-05-04 07:52 | 24.62494 | 92.62622 | 6639 ft | 289 kts | 47° |
| 2026-05-04 07:53 | 24.63825 | 92.64262 | 6303 ft | 286 kts | 47° |
| 2026-05-04 07:54 | 24.72717 | 92.75240 | 4621 ft | 242 kts | 49° |
| 2026-05-04 07:55 | 24.73815 | 92.76598 | 4583 ft | 228 kts | 49° |
| 2026-05-04 07:55 | 24.74838 | 92.77863 | 4537 ft | 214 kts | 48° |
| 2026-05-04 07:55 | 24.75835 | 92.79034 | 4417 ft | 204 kts | 42° |
| 2026-05-04 07:55 | 24.77107 | 92.79681 | 4088 ft | 200 kts | 7° |
| 2026-05-04 07:56 | 24.78453 | 92.79779 | 3993 ft | 184 kts | 6° |
| 2026-05-04 07:56 | 24.79641 | 92.80138 | 3883 ft | 172 kts | 24° |
| 2026-05-04 07:56 | 24.80654 | 92.80868 | 3652 ft | 173 kts | 41° |
| 2026-05-04 07:56 | 24.81495 | 92.81837 | 3439 ft | 173 kts | 52° |
| 2026-05-04 07:57 | 24.82226 | 92.82887 | 3220 ft | 171 kts | 55° |
| 2026-05-04 07:57 | 24.82908 | 92.83961 | 3005 ft | 169 kts | 57° |
| 2026-05-04 07:57 | 24.83560 | 92.85032 | 2794 ft | 169 kts | 57° |
| 2026-05-04 07:57 | 24.84214 | 92.86121 | 2579 ft | 168 kts | 57° |
| 2026-05-04 07:58 | 24.84857 | 92.87195 | 2370 ft | 168 kts | 57° |
| 2026-05-04 07:58 | 24.85499 | 92.88264 | 2159 ft | 167 kts | 58° |
| 2026-05-04 07:58 | 24.86142 | 92.89336 | 1947 ft | 166 kts | 58° |
| 2026-05-04 07:58 | 24.86778 | 92.90391 | 1758 ft | 157 kts | 57° |
| 2026-05-04 07:59 | 24.87351 | 92.91344 | 1534 ft | 142 kts | 57° |
| 2026-05-04 07:59 | 24.87886 | 92.92233 | 1347 ft | 136 kts | 57° |
| 2026-05-04 07:59 | 24.88415 | 92.93111 | 1189 ft | 136 kts | 57° |
| 2026-05-04 07:59 | 24.88932 | 92.93971 | 1026 ft | 135 kts | 58° |
| 2026-05-04 08:00 | 24.89457 | 92.94836 | 854 ft | 135 kts | 56° |
| 2026-05-04 08:00 | 24.89980 | 92.95678 | 681 ft | 134 kts | 58° |
| 2026-05-04 08:00 | 24.90501 | 92.96547 | 511 ft | 134 kts | 57° |
| 2026-05-04 08:02 | 24.91504 | 92.97907 | 387 ft | 0 kts | 62° |